createdAt,value
2019-06-01T00:00:11.671Z,83.27
2019-06-01T00:02:12.314Z,82.93
2019-06-01T00:04:19.833Z,83.70
2019-06-01T00:06:27.263Z,83.72
2019-06-01T00:08:34.769Z,83.96
2019-06-01T00:10:42.972Z,83.62
2019-06-01T00:12:50.515Z,83.90
2019-06-01T00:14:57.847Z,83.63
2019-06-01T00:17:05.323Z,83.98
2019-06-01T00:19:12.922Z,84.68
2019-06-01T00:21:20.328Z,84.82
2019-06-01T00:23:27.836Z,84.63
2019-06-01T00:25:35.350Z,84.34
2019-06-01T00:27:42.891Z,84.68
2019-06-01T00:29:50.344Z,85.37
2019-06-01T00:31:57.823Z,85.39
2019-06-01T00:34:05.554Z,85.93
2019-06-01T00:36:13.055Z,86.05
2019-06-01T00:38:20.493Z,85.44
2019-06-01T00:40:27.996Z,85.55
2019-06-01T00:42:35.414Z,86.12
2019-06-01T00:44:44.209Z,85.72
2019-06-01T00:46:52.768Z,84.72
2019-06-01T00:49:00.427Z,85.79
2019-06-01T00:51:07.903Z,86.89
2019-06-01T00:53:15.307Z,86.48
2019-06-01T00:55:22.700Z,86.27
2019-06-01T00:57:30.187Z,85.70
2019-06-01T00:59:37.560Z,86.31
2019-06-01T01:01:45.890Z,84.86
2019-06-01T01:03:54.424Z,84.38
2019-06-01T01:06:02.018Z,85.70
2019-06-01T01:08:09.373Z,86.95
2019-06-01T01:10:17.603Z,87.60
2019-06-01T01:12:25.023Z,88.24
2019-06-01T01:14:32.371Z,88.46
2019-06-01T01:16:39.819Z,88.21
2019-06-01T01:18:47.737Z,87.48
2019-06-01T01:20:56.281Z,87.40
2019-06-01T01:23:03.706Z,88.22
2019-06-01T01:25:11.392Z,87.74
2019-06-01T01:27:18.878Z,87.43
2019-06-01T01:29:26.248Z,87.75
2019-06-01T01:31:33.671Z,87.82
2019-06-01T01:33:41.152Z,88.82
2019-06-01T01:35:49.652Z,88.14
2019-06-01T01:37:59.647Z,87.81
2019-06-01T01:40:07.411Z,88.00
2019-06-01T01:42:14.773Z,88.03
2019-06-01T01:44:22.177Z,88.08
2019-06-01T01:46:29.622Z,88.38
2019-06-01T01:48:36.965Z,88.60
2019-06-01T01:50:44.400Z,88.31
2019-06-01T01:52:52.741Z,89.08
2019-06-01T01:55:00.304Z,89.61
2019-06-01T01:57:07.763Z,89.78
2019-06-01T01:59:15.148Z,89.77
2019-06-01T02:01:23.256Z,89.04
2019-06-01T02:03:30.863Z,89.37
2019-06-01T02:05:38.206Z,90.05
2019-06-01T02:07:45.662Z,89.64
2019-06-01T02:09:53.315Z,89.77
2019-06-01T02:12:01.945Z,89.68
2019-06-01T02:14:09.565Z,88.36
2019-06-01T02:16:17.026Z,88.65
2019-06-01T02:18:24.399Z,88.24
2019-06-01T02:20:31.971Z,88.20
2019-06-01T02:22:39.351Z,88.57
2019-06-01T02:24:46.776Z,89.41
2019-06-01T02:26:55.108Z,88.62
2019-06-01T02:29:03.900Z,88.86
2019-06-01T02:31:11.712Z,88.72
2019-06-01T02:33:19.130Z,88.48
2019-06-01T02:35:26.713Z,89.24
2019-06-01T02:37:34.112Z,88.31
2019-06-01T02:39:41.624Z,89.56
2019-06-01T02:41:49.067Z,89.36
2019-06-01T02:43:57.370Z,89.06
2019-06-01T02:46:07.465Z,89.59
2019-06-01T02:48:14.467Z,89.77
2019-06-01T02:50:22.260Z,89.56
2019-06-01T02:52:29.804Z,89.53
2019-06-01T02:54:37.236Z,90.70
2019-06-01T02:56:44.632Z,90.26
2019-06-01T02:58:52.052Z,89.81
2019-06-01T03:01:38.108Z,89.79
2019-06-01T03:03:45.478Z,89.15
2019-06-01T03:05:57.329Z,90.33
2019-06-01T03:08:05.488Z,90.74
2019-06-01T03:10:14.695Z,91.08
2019-06-01T03:12:24.442Z,91.08
2019-06-01T03:14:34.718Z,91.39
2019-06-01T03:16:43.992Z,90.72
2019-06-01T03:18:55.238Z,91.54
2019-06-01T03:21:06.252Z,91.74
2019-06-01T03:23:18.178Z,91.89
2019-06-01T03:25:29.311Z,92.55
2019-06-01T03:27:40.443Z,92.15
2019-06-01T03:29:55.690Z,92.65
2019-06-01T03:32:24.137Z,93.11
2019-06-01T03:34:13.954Z,92.56
2019-06-01T03:36:21.542Z,89.09
2019-06-01T03:38:29.585Z,91.37
2019-06-01T03:40:37.525Z,91.84
2019-06-01T03:42:45.270Z,93.01
2019-06-01T03:44:52.661Z,93.21
2019-06-01T03:47:01.392Z,93.57
2019-06-01T03:49:09.798Z,94.05
2019-06-01T03:51:17.289Z,93.27
2019-06-01T03:53:24.670Z,90.54
2019-06-01T03:55:32.099Z,90.77
2019-06-01T03:57:39.533Z,93.20
2019-06-01T03:59:46.983Z,88.03
2019-06-01T04:01:54.402Z,89.44
2019-06-01T04:04:03.078Z,91.14
2019-06-01T04:06:11.422Z,91.57
2019-06-01T04:08:18.950Z,89.37
2019-06-01T04:10:26.333Z,87.46
2019-06-01T04:12:33.770Z,87.10
2019-06-01T04:14:41.240Z,91.02
2019-06-01T04:16:48.593Z,89.79
2019-06-01T04:18:56.097Z,87.78
2019-06-01T04:21:04.224Z,90.80
2019-06-01T04:23:12.390Z,88.92
2019-06-01T04:25:19.951Z,87.24
2019-06-01T04:27:27.363Z,91.69
2019-06-01T04:29:34.872Z,87.51
2019-06-01T04:31:42.354Z,92.23
2019-06-01T04:33:49.714Z,91.97
2019-06-01T04:35:57.203Z,92.07
2019-06-01T04:38:05.053Z,92.53
2019-06-01T04:40:13.676Z,90.88
2019-06-01T04:42:21.170Z,92.09
2019-06-01T04:44:28.713Z,91.08
2019-06-01T04:46:36.152Z,89.05
2019-06-01T04:48:43.565Z,90.66
2019-06-01T04:50:51.000Z,90.49
2019-06-01T04:52:58.607Z,88.57
2019-06-01T04:55:07.341Z,88.53
2019-06-01T04:57:15.144Z,89.66
2019-06-01T04:59:22.890Z,88.52
2019-06-01T05:01:30.355Z,90.21
2019-06-01T05:03:37.906Z,90.76
2019-06-01T05:05:45.322Z,88.63
2019-06-01T05:07:52.751Z,89.90
2019-06-01T05:10:00.381Z,90.45
2019-06-01T05:12:07.850Z,88.47
2019-06-01T05:14:16.518Z,91.28
2019-06-01T05:16:24.149Z,92.31
2019-06-01T05:18:31.594Z,91.50
2019-06-01T05:20:39.054Z,91.49
2019-06-01T05:22:46.524Z,92.06
2019-06-01T05:24:53.995Z,91.45
2019-06-01T05:27:01.450Z,91.23
2019-06-01T05:29:09.409Z,86.59
2019-06-01T05:31:24.697Z,87.87
2019-06-01T05:33:36.784Z,84.03
2019-06-01T05:35:37.638Z,86.15
2019-06-01T05:37:45.415Z,83.22
2019-06-01T05:39:53.128Z,83.34
2019-06-01T05:42:00.625Z,82.81
2019-06-01T05:44:08.843Z,81.66
2019-06-01T05:46:16.274Z,84.82
2019-06-01T05:48:28.512Z,83.41
2019-06-01T05:50:33.150Z,85.62
2019-06-01T05:52:40.563Z,84.76
2019-06-01T05:54:48.044Z,82.91
2019-06-01T05:56:55.572Z,82.86
2019-06-01T05:59:03.039Z,83.13
2019-06-01T06:01:10.578Z,80.85
2019-06-01T06:03:20.806Z,79.49
2019-06-01T06:05:27.083Z,80.80
2019-06-01T06:07:34.528Z,79.74
2019-06-01T06:09:42.271Z,78.29
2019-06-01T06:11:53.698Z,78.98
2019-06-01T06:13:58.925Z,76.90
2019-06-01T06:16:06.450Z,75.76
2019-06-01T06:18:13.877Z,77.95
2019-06-01T06:20:22.203Z,77.34
2019-06-01T06:22:29.835Z,77.76
2019-06-01T06:24:37.389Z,78.74
2019-06-01T06:26:44.842Z,79.83
2019-06-01T06:28:53.217Z,77.85
2019-06-01T06:31:00.704Z,80.04
2019-06-01T06:33:08.161Z,80.40
2019-06-01T06:35:17.660Z,80.87
2019-06-01T06:37:25.089Z,79.83
2019-06-01T06:39:32.724Z,80.46
2019-06-01T06:41:40.350Z,78.18
2019-06-01T06:43:47.913Z,77.04
2019-06-01T06:45:55.627Z,75.97
2019-06-01T06:48:03.301Z,77.82
2019-06-01T06:50:15.029Z,78.52
2019-06-01T06:52:23.614Z,74.31
2019-06-01T06:54:31.366Z,76.10
2019-06-01T06:56:39.297Z,76.04
2019-06-01T06:58:47.447Z,76.32
2019-06-01T07:00:55.429Z,76.54
2019-06-01T07:03:02.921Z,75.59
2019-06-01T07:05:10.824Z,75.23
2019-06-01T07:07:19.503Z,76.00
2019-06-01T07:09:28.215Z,73.86
2019-06-01T07:11:35.965Z,73.28
2019-06-01T07:13:44.387Z,73.80
2019-06-01T07:15:51.872Z,72.79
2019-06-01T07:17:59.370Z,71.76
2019-06-01T07:20:07.618Z,72.30
2019-06-01T07:22:17.118Z,72.10
2019-06-01T07:24:24.370Z,72.62
2019-06-01T07:26:32.383Z,72.25
2019-06-01T07:28:40.096Z,71.43
2019-06-01T07:30:50.725Z,71.53
2019-06-01T07:32:56.873Z,72.54
2019-06-01T07:35:04.356Z,70.73
2019-06-01T07:37:12.263Z,72.21
2019-06-01T07:39:20.572Z,71.79
2019-06-01T07:41:28.845Z,72.88
2019-06-01T07:43:36.646Z,73.70
2019-06-01T07:45:44.311Z,72.55
2019-06-01T07:47:52.031Z,73.11
2019-06-01T07:49:59.757Z,71.57
2019-06-01T07:52:12.944Z,70.26
2019-06-01T07:54:18.376Z,69.26
2019-06-01T07:56:26.520Z,67.88
2019-06-01T07:58:34.917Z,68.96
2019-06-01T08:00:42.634Z,67.59
2019-06-01T08:02:50.336Z,68.79
2019-06-01T08:04:57.946Z,68.40
2019-06-01T08:07:05.970Z,68.29
2019-06-01T08:09:13.637Z,68.86
2019-06-01T08:11:21.359Z,67.60
2019-06-01T08:13:32.276Z,67.67
2019-06-01T08:15:38.665Z,68.27
2019-06-01T08:17:46.602Z,68.13
2019-06-01T08:19:54.637Z,71.43
2019-06-01T08:22:02.634Z,69.98
2019-06-01T08:24:10.630Z,71.79
2019-06-01T08:26:20.074Z,72.05
2019-06-01T08:28:29.055Z,73.36
2019-06-01T08:30:37.022Z,66.67
2019-06-01T08:32:45.376Z,66.76
2019-06-01T08:35:07.232Z,68.54
2019-06-01T08:37:03.685Z,68.03
2019-06-01T08:39:12.206Z,67.91
2019-06-01T08:41:19.938Z,65.10
2019-06-01T08:43:29.649Z,65.47
2019-06-01T08:45:38.230Z,64.85
2019-06-01T08:47:49.137Z,65.96
2019-06-01T08:49:57.024Z,67.00
2019-06-01T08:52:05.851Z,67.86
2019-06-01T08:54:13.684Z,65.60
2019-06-01T08:56:22.227Z,62.72
2019-06-01T08:58:30.418Z,63.33
2019-06-01T09:00:38.282Z,63.08
2019-06-01T09:02:46.466Z,62.57
2019-06-01T09:04:54.229Z,63.47
2019-06-01T09:07:02.145Z,62.30
2019-06-01T09:09:11.831Z,64.06
2019-06-01T09:11:20.161Z,64.13
2019-06-01T09:13:31.187Z,63.34
2019-06-01T09:15:41.540Z,64.73
2019-06-01T09:17:49.586Z,63.83
2019-06-01T09:19:57.710Z,61.00
2019-06-01T09:22:06.130Z,61.36
2019-06-01T09:24:13.934Z,59.31
2019-06-01T09:26:21.900Z,60.00
2019-06-01T09:28:32.569Z,62.65
2019-06-01T09:30:40.612Z,60.39
2019-06-01T09:32:48.544Z,61.44
2019-06-01T09:34:57.318Z,61.86
2019-06-01T09:37:05.415Z,62.69
2019-06-01T09:39:13.514Z,60.24
2019-06-01T09:41:21.654Z,60.18
2019-06-01T09:43:31.053Z,61.27
2019-06-01T09:45:39.488Z,59.71
2019-06-01T09:47:47.581Z,55.37
2019-06-01T09:49:55.440Z,56.94
2019-06-01T09:52:03.281Z,59.33
2019-06-01T09:54:10.829Z,61.33
2019-06-01T09:56:18.369Z,58.09
2019-06-01T09:58:25.885Z,59.38
2019-06-01T10:00:34.867Z,59.21
2019-06-01T10:02:42.731Z,56.40
2019-06-01T10:04:50.367Z,57.39
2019-06-01T10:06:58.003Z,54.14
2019-06-01T10:09:06.845Z,55.20
2019-06-01T10:11:14.827Z,56.73
2019-06-01T10:13:22.376Z,58.78
2019-06-01T10:15:30.190Z,55.97
2019-06-01T10:17:39.075Z,55.22
2019-06-01T10:19:47.036Z,56.21
2019-06-01T10:21:55.463Z,55.11
2019-06-01T10:24:02.912Z,56.15
2019-06-01T10:26:10.458Z,55.65
2019-06-01T10:28:17.998Z,54.52
2019-06-01T10:30:25.721Z,53.35
2019-06-01T10:32:34.228Z,53.95
2019-06-01T10:34:42.034Z,52.77
2019-06-01T10:36:49.599Z,52.27
2019-06-01T10:38:57.527Z,51.19
2019-06-01T10:41:05.223Z,51.81
2019-06-01T10:43:12.703Z,54.14
2019-06-01T10:45:20.475Z,55.79
2019-06-01T10:47:28.366Z,53.43
2019-06-01T10:49:36.044Z,53.90
2019-06-01T10:51:43.634Z,55.54
2019-06-01T10:53:51.226Z,54.35
2019-06-01T10:55:58.789Z,54.16
2019-06-01T10:58:07.665Z,53.60
2019-06-01T11:00:16.406Z,53.28
2019-06-01T11:02:23.930Z,52.34
2019-06-01T11:04:32.758Z,54.40
2019-06-01T11:06:44.882Z,52.65
2019-06-01T11:08:49.716Z,55.31
2019-06-01T11:10:57.223Z,53.01
2019-06-01T11:13:04.948Z,51.99
2019-06-01T11:15:13.512Z,53.61
2019-06-01T11:17:21.086Z,53.24
2019-06-01T11:19:28.640Z,51.57
2019-06-01T11:21:37.383Z,50.91
2019-06-01T11:23:46.715Z,52.58
2019-06-01T11:25:54.407Z,53.79
2019-06-01T11:28:01.905Z,55.36
2019-06-01T11:30:11.405Z,56.23
2019-06-01T11:32:18.825Z,53.72
2019-06-01T11:34:26.260Z,53.19
2019-06-01T11:36:34.242Z,53.82
2019-06-01T11:38:42.561Z,54.33
2019-06-01T11:40:50.193Z,54.33
2019-06-01T11:42:57.613Z,55.24
2019-06-01T11:45:05.905Z,54.62
2019-06-01T11:47:15.464Z,53.31
2019-06-01T11:49:22.931Z,53.40
2019-06-01T11:51:30.484Z,53.46
2019-06-01T11:53:39.765Z,53.93
2019-06-01T11:55:47.116Z,50.77
2019-06-01T11:57:54.751Z,51.47
2019-06-01T12:00:02.367Z,53.29
2019-06-01T12:02:10.252Z,53.15
2019-06-01T12:04:17.827Z,52.80
2019-06-01T12:06:25.335Z,51.23
2019-06-01T12:08:34.336Z,49.99
2019-06-01T12:10:43.179Z,52.58
2019-06-01T12:12:51.010Z,53.79
2019-06-01T12:14:59.590Z,52.89
2019-06-01T12:17:07.207Z,52.27
2019-06-01T12:19:14.646Z,51.52
2019-06-01T12:21:22.284Z,50.87
2019-06-01T12:23:29.955Z,51.18
2019-06-01T12:25:38.204Z,51.85
2019-06-01T12:27:46.182Z,50.24
2019-06-01T12:29:53.885Z,52.57
2019-06-01T12:32:03.462Z,50.32
2019-06-01T12:34:10.813Z,52.34
2019-06-01T12:36:18.224Z,53.57
2019-06-01T12:38:25.702Z,52.02
2019-06-01T12:40:33.151Z,52.54
2019-06-01T12:42:41.486Z,50.08
2019-06-01T12:44:49.327Z,52.91
2019-06-01T12:46:56.755Z,53.53
2019-06-01T12:49:04.153Z,50.82
2019-06-01T12:51:11.880Z,52.05
2019-06-01T12:53:19.470Z,53.59
2019-06-01T12:55:27.071Z,51.69
2019-06-01T12:57:34.497Z,53.28
2019-06-01T12:59:43.171Z,51.81
2019-06-01T13:01:51.364Z,54.03
2019-06-01T13:03:59.103Z,53.39
2019-06-01T13:06:06.713Z,53.98
2019-06-01T13:08:15.393Z,52.09
2019-06-01T13:10:22.850Z,55.11
2019-06-01T13:12:30.459Z,56.24
2019-06-01T13:14:38.077Z,54.64
2019-06-01T13:16:52.905Z,53.67
2019-06-01T13:18:55.136Z,54.02
2019-06-01T13:21:02.814Z,53.04
2019-06-01T13:23:11.046Z,53.60
2019-06-01T13:25:18.937Z,53.26
2019-06-01T13:27:26.862Z,54.25
2019-06-01T13:29:35.306Z,51.92
2019-06-01T13:31:44.061Z,51.74
2019-06-01T13:33:53.639Z,52.38
2019-06-01T13:36:01.647Z,50.66
2019-06-01T13:38:12.164Z,50.58
2019-06-01T13:40:18.471Z,49.53
2019-06-01T13:42:26.224Z,50.99
2019-06-01T13:44:33.998Z,50.82
2019-06-01T13:46:43.376Z,50.18
2019-06-01T13:48:52.683Z,50.06
2019-06-01T13:51:00.186Z,52.21
2019-06-01T13:53:08.707Z,51.35
2019-06-01T13:55:16.704Z,50.46
2019-06-01T13:57:24.337Z,50.42
2019-06-01T13:59:31.998Z,50.44
2019-06-01T14:01:40.839Z,50.18
2019-06-01T14:03:49.374Z,50.40
2019-06-01T14:06:00.832Z,50.00
2019-06-01T14:08:06.706Z,50.96
2019-06-01T14:10:14.643Z,48.62
2019-06-01T14:12:23.142Z,49.66
2019-06-01T14:14:30.928Z,50.76
2019-06-01T14:16:38.656Z,49.92
2019-06-01T14:18:47.573Z,50.12
2019-06-01T14:20:55.892Z,49.28
2019-06-01T14:23:03.518Z,48.76
2019-06-01T14:25:14.732Z,51.08
2019-06-01T14:27:21.438Z,50.96
2019-06-01T14:29:29.655Z,51.04
2019-06-01T14:31:37.364Z,52.23
2019-06-01T14:33:46.370Z,49.81
2019-06-01T14:35:54.611Z,49.62
2019-06-01T14:38:02.958Z,50.93
2019-06-01T14:40:11.146Z,49.48
2019-06-01T14:42:18.930Z,50.69
2019-06-01T14:44:29.252Z,52.25
2019-06-01T14:46:52.930Z,51.11
2019-06-01T14:48:47.537Z,51.57
2019-06-01T14:50:55.833Z,50.75
2019-06-01T14:53:03.689Z,51.08
2019-06-01T14:55:11.682Z,51.18
2019-06-01T14:57:19.217Z,51.25
2019-06-01T14:59:26.822Z,52.82
2019-06-01T15:01:34.256Z,53.34
2019-06-01T15:03:41.912Z,54.27
2019-06-01T15:05:50.281Z,53.62
2019-06-01T15:07:59.026Z,52.07
2019-06-01T15:10:08.364Z,51.19
2019-06-01T15:12:15.870Z,51.47
2019-06-01T15:14:23.530Z,52.68
2019-06-01T15:16:31.362Z,52.01
2019-06-01T15:18:39.018Z,52.19
2019-06-01T15:20:46.992Z,52.43
2019-06-01T15:22:56.268Z,52.33
2019-06-01T15:25:06.173Z,52.46
2019-06-01T15:27:14.143Z,52.50
2019-06-01T15:29:22.218Z,53.53
2019-06-01T15:31:29.889Z,53.63
2019-06-01T15:33:37.806Z,53.79
2019-06-01T15:35:46.152Z,52.03
2019-06-01T15:37:58.388Z,53.20
2019-06-01T15:40:04.037Z,53.06
2019-06-01T15:42:11.763Z,53.63
2019-06-01T15:44:19.847Z,50.91
2019-06-01T15:46:27.923Z,53.71
2019-06-01T15:48:35.891Z,51.90
2019-06-01T15:50:43.947Z,53.48
2019-06-01T15:52:52.874Z,52.40
2019-06-01T15:55:00.913Z,52.51
2019-06-01T15:57:08.478Z,52.38
2019-06-01T15:59:17.112Z,50.74
2019-06-01T16:01:25.393Z,51.86
2019-06-01T16:03:34.429Z,53.33
2019-06-01T16:05:42.785Z,53.95
2019-06-01T16:07:51.250Z,54.09
2019-06-01T16:10:07.556Z,54.07
2019-06-01T16:12:10.770Z,53.89
2019-06-01T16:14:19.263Z,53.87
2019-06-01T16:16:27.235Z,54.65
2019-06-01T16:18:35.401Z,54.21
2019-06-01T16:20:43.476Z,53.38
2019-06-01T16:22:51.319Z,53.96
2019-06-01T16:25:00.277Z,54.13
2019-06-01T16:27:08.876Z,55.41
2019-06-01T16:29:16.983Z,53.99
2019-06-01T16:31:24.831Z,54.24
2019-06-01T16:33:33.008Z,53.97
2019-06-01T16:35:40.990Z,54.41
2019-06-01T16:37:49.177Z,55.47
2019-06-01T16:40:03.861Z,55.04
2019-06-01T16:42:07.225Z,54.66
2019-06-01T16:44:19.551Z,54.92
2019-06-01T16:46:26.130Z,55.11
2019-06-01T16:48:34.611Z,54.69
2019-06-01T16:50:42.340Z,54.65
2019-06-01T16:52:50.067Z,55.25
2019-06-01T16:54:58.189Z,55.25
2019-06-01T16:57:07.370Z,56.45
2019-06-01T16:59:15.212Z,54.46
2019-06-01T17:01:22.815Z,54.74
2019-06-01T17:03:31.103Z,55.68
2019-06-01T17:05:39.046Z,56.31
2019-06-01T17:07:47.091Z,57.24
2019-06-01T17:09:54.809Z,57.29
2019-06-01T17:12:03.179Z,56.27
2019-06-01T17:14:11.089Z,56.31
2019-06-01T17:16:18.978Z,56.41
2019-06-01T17:18:27.045Z,56.53
2019-06-01T17:20:52.741Z,55.73
2019-06-01T17:23:02.923Z,56.68
2019-06-01T17:25:10.444Z,57.19
2019-06-01T17:27:18.377Z,57.34
2019-06-01T17:29:27.158Z,57.46
2019-06-01T17:31:35.400Z,58.51
2019-06-01T17:33:43.539Z,58.31
2019-06-01T17:35:51.269Z,58.29
2019-06-01T17:38:00.703Z,58.17
2019-06-01T17:40:08.913Z,58.78
2019-06-01T17:42:16.847Z,58.66
2019-06-01T17:44:25.562Z,59.68
2019-06-01T17:46:33.270Z,58.48
2019-06-01T17:48:41.781Z,58.36
2019-06-01T17:50:49.409Z,58.79
2019-06-01T17:52:57.184Z,59.65
2019-06-01T17:55:05.263Z,59.78
2019-06-01T17:57:12.905Z,60.11
2019-06-01T17:59:20.895Z,60.00
2019-06-01T18:01:28.512Z,60.13
2019-06-01T18:03:36.775Z,60.91
2019-06-01T18:05:45.001Z,60.50
2019-06-01T18:07:52.923Z,60.45
2019-06-01T18:10:02.309Z,60.08
2019-06-01T18:12:10.230Z,61.23
2019-06-01T18:14:19.150Z,60.57
2019-06-01T18:16:26.943Z,61.06
2019-06-01T18:18:34.677Z,61.58
2019-06-01T18:20:42.579Z,61.30
2019-06-01T18:22:50.612Z,61.46
2019-06-01T18:24:58.276Z,61.66
2019-06-01T18:27:06.468Z,61.28
2019-06-01T18:29:14.246Z,61.66
2019-06-01T18:31:22.197Z,61.22
2019-06-01T18:33:29.763Z,61.40
2019-06-01T18:35:38.018Z,61.62
2019-06-01T18:37:45.808Z,61.94
2019-06-01T18:39:53.973Z,61.85
2019-06-01T18:42:01.638Z,61.92
2019-06-01T18:44:09.725Z,62.34
2019-06-01T18:46:17.819Z,62.41
2019-06-01T18:48:25.899Z,62.24
2019-06-01T18:50:33.586Z,62.17
2019-06-01T18:52:41.303Z,63.23
2019-06-01T18:54:49.063Z,62.23
2019-06-01T18:57:09.731Z,62.73
2019-06-01T18:59:07.216Z,63.25
2019-06-01T19:01:20.612Z,62.56
2019-06-01T19:03:25.977Z,63.28
2019-06-01T19:05:33.796Z,63.36
2019-06-01T19:07:42.240Z,63.40
2019-06-01T19:09:49.847Z,63.89
2019-06-01T19:11:57.655Z,63.66
2019-06-01T19:14:05.687Z,63.80
2019-06-01T19:16:14.305Z,63.88
2019-06-01T19:18:21.957Z,64.24
2019-06-01T19:20:33.069Z,65.13
2019-06-01T19:22:39.221Z,64.84
2019-06-01T19:24:47.014Z,65.61
2019-06-01T19:26:54.802Z,65.45
2019-06-01T19:29:02.603Z,66.04
2019-06-01T19:31:11.201Z,66.16
2019-06-01T19:33:19.621Z,66.30
2019-06-01T19:35:27.651Z,67.54
2019-06-01T19:37:38.860Z,67.60
2019-06-01T19:39:47.756Z,67.13
2019-06-01T19:41:55.732Z,67.46
2019-06-01T19:44:03.345Z,67.46
2019-06-01T19:46:11.768Z,67.16
2019-06-01T19:48:20.703Z,67.23
2019-06-01T19:50:28.424Z,67.45
2019-06-01T19:52:37.076Z,67.52
2019-06-01T19:54:44.632Z,68.54
2019-06-01T19:56:52.156Z,69.32
2019-06-01T19:58:59.802Z,69.95
2019-06-01T20:01:07.704Z,69.68
2019-06-01T20:03:20.212Z,69.40
2019-06-01T20:05:25.609Z,69.54
2019-06-01T20:07:33.521Z,70.12
2019-06-01T20:09:41.103Z,70.45
2019-06-01T20:12:01.346Z,70.55
2019-06-01T20:13:57.917Z,71.34
2019-06-01T20:16:05.556Z,71.64
2019-06-01T20:18:13.124Z,72.08
2019-06-01T20:20:23.223Z,72.12
2019-06-01T20:22:30.874Z,72.09
2019-06-01T20:24:38.471Z,71.68
2019-06-01T20:26:49.146Z,72.59
2019-06-01T20:28:57.517Z,73.42
2019-06-01T20:31:05.197Z,73.95
2019-06-01T20:33:14.033Z,74.25
2019-06-01T20:35:22.185Z,75.21
2019-06-01T20:37:29.932Z,75.79
2019-06-01T20:39:37.843Z,76.30
2019-06-01T20:41:45.577Z,76.37
2019-06-01T20:43:53.268Z,76.28
2019-06-01T20:46:01.075Z,76.21
2019-06-01T20:48:08.989Z,76.80
2019-06-01T20:50:18.567Z,77.27
2019-06-01T20:52:27.196Z,76.82
2019-06-01T20:54:35.246Z,76.94
2019-06-01T20:56:43.082Z,77.64
2019-06-01T20:58:50.991Z,77.67
2019-06-01T21:00:59.451Z,77.70
2019-06-01T21:03:08.289Z,77.80
2019-06-01T21:05:17.926Z,78.24
2019-06-01T21:07:26.144Z,78.33
2019-06-01T21:09:34.685Z,77.93
2019-06-01T21:11:42.729Z,79.05
2019-06-01T21:13:50.963Z,79.26
2019-06-01T21:15:58.611Z,78.89
2019-06-01T21:18:06.516Z,79.28
2019-06-01T21:20:23.274Z,79.43
2019-06-01T21:22:24.952Z,79.59
2019-06-01T21:24:32.675Z,79.62
2019-06-01T21:26:40.472Z,79.89
2019-06-01T21:28:48.201Z,79.73
2019-06-01T21:30:55.950Z,80.71
2019-06-01T21:33:04.016Z,80.54
2019-06-01T21:35:12.373Z,80.24
2019-06-01T21:37:21.471Z,80.23
2019-06-01T21:39:29.427Z,80.17
2019-06-01T21:41:37.637Z,79.58
2019-06-01T21:43:45.502Z,79.90
2019-06-01T21:45:53.846Z,79.55
2019-06-01T21:48:01.661Z,80.44
2019-06-01T21:50:10.331Z,80.46
2019-06-01T21:52:19.910Z,79.63
2019-06-01T21:54:28.063Z,80.56
2019-06-01T21:56:36.536Z,80.90
2019-06-01T21:58:44.970Z,80.49
2019-06-01T22:00:53.341Z,79.16
2019-06-01T22:03:01.965Z,80.75
2019-06-01T22:05:11.564Z,79.95
2019-06-01T22:07:21.149Z,78.97
2019-06-01T22:09:30.898Z,80.36
2019-06-01T22:11:39.869Z,80.55
2019-06-01T22:13:48.057Z,79.98
2019-06-01T22:15:56.332Z,80.95
2019-06-01T22:18:04.300Z,80.84
2019-06-01T22:20:12.517Z,80.70
2019-06-01T22:22:20.072Z,80.16
2019-06-01T22:24:28.304Z,80.97
2019-06-01T22:26:36.524Z,81.99
2019-06-01T22:28:44.044Z,81.54
2019-06-01T22:30:51.563Z,80.87
2019-06-01T22:32:59.257Z,81.11
2019-06-01T22:35:07.871Z,82.99
2019-06-01T22:37:15.583Z,83.29
2019-06-01T22:39:23.207Z,82.79
2019-06-01T22:41:30.849Z,82.50
2019-06-01T22:43:46.231Z,82.78
2019-06-01T22:45:47.633Z,82.90
2019-06-01T22:47:55.312Z,83.33
2019-06-01T22:50:02.942Z,83.04
2019-06-01T22:52:10.376Z,83.53
2019-06-01T22:54:18.006Z,82.85
2019-06-01T22:56:25.734Z,83.29
2019-06-01T22:58:33.316Z,82.62
2019-06-01T23:00:40.836Z,83.37
2019-06-01T23:02:48.386Z,84.17
2019-06-01T23:04:56.059Z,83.59
2019-06-01T23:07:03.588Z,84.28
2019-06-01T23:09:11.265Z,85.25
2019-06-01T23:11:18.949Z,85.24
2019-06-01T23:13:26.621Z,85.64
2019-06-01T23:15:34.241Z,85.52
2019-06-01T23:17:41.802Z,84.99
2019-06-01T23:19:49.311Z,84.80
2019-06-01T23:21:56.876Z,84.38
2019-06-01T23:24:04.313Z,84.32
2019-06-01T23:26:12.144Z,85.05
2019-06-01T23:28:19.695Z,84.76
2019-06-01T23:30:28.271Z,85.50
2019-06-01T23:32:36.044Z,85.74
2019-06-01T23:34:43.479Z,85.53
2019-06-01T23:36:50.963Z,84.71
2019-06-01T23:38:58.478Z,86.20
2019-06-01T23:41:06.161Z,86.72
2019-06-01T23:43:13.682Z,86.63
2019-06-01T23:45:21.163Z,86.47
2019-06-01T23:47:29.324Z,86.10
2019-06-01T23:49:37.077Z,86.48
2019-06-01T23:51:44.536Z,86.92
2019-06-01T23:53:51.954Z,86.63
2019-06-01T23:55:59.397Z,86.76
2019-06-01T23:58:06.867Z,86.45
